Time;durP1;ratioP1;P1;durP2;ratioP2;P2;SDS_P1;SDS_P2;PMS_P1;PMS_P2;Temp;Humidity;BMP_temperature;BMP_pressure;BME280_temperature;BME280_humidity;BME280_pressure;Samples;Min_cycle;Max_cycle;Signal;HPM_P1;HPM_P2
2023/02/26 00:00:32;;;;;;;9.88;3.15;;;3.40;99.90;;;;;;4934188;29;20024;-91
2023/02/26 00:03:03;;;;;;;10.35;2.50;;;3.50;99.90;;;;;;4934238;29;20032;-90
2023/02/26 00:05:34;;;;;;;5.45;2.05;;;3.80;99.90;;;;;;4933941;29;20027;-91
2023/02/26 00:08:05;;;;;;;8.55;2.15;;;4.10;99.90;;;;;;4933315;29;20038;-93
2023/02/26 00:10:34;;;;;;;9.45;2.53;;;3.80;99.90;;;;;;4934053;29;20024;-92
2023/02/26 00:13:16;;;;;;;;;;;;;;;;;;;;;
2023/02/26 00:16:19;;;;;;;;;;;;;;;;;;;;;
2023/02/26 00:22:11;;;;;;;9.75;2.80;;;3.00;99.90;;;;;;4934113;29;20229;-91
2023/02/26 00:24:39;;;;;;;7.97;3.20;;;3.00;99.90;;;;;;4937850;29;20448;-92
2023/02/26 00:27:21;;;;;;;;;;;;;;;;;;;;;
2023/02/26 00:34:10;;;;;;;8.05;2.60;;;2.90;99.90;;;;;;4936883;29;20395;-91
2023/02/26 00:37:42;;;;;;;12.60;3.17;;;2.90;99.90;;;;;;4902785;29;20074;-92
2023/02/26 00:44:13;;;;;;;11.40;3.10;;;2.90;99.90;;;;;;4859495;29;20509;-91
2023/02/26 00:50:12;;;;;;;12.77;3.83;;;3.30;99.90;;;;;;4842312;29;20101;-92
2023/02/26 00:53:21;;;;;;;13.25;3.88;;;3.00;99.90;;;;;;4842332;29;20096;-92
2023/02/26 00:55:50;;;;;;;9.23;2.95;;;3.00;99.90;;;;;;4822578;29;20046;-91
2023/02/26 01:04:56;;;;;;;;;;;;;;;;;;;;;
2023/02/26 01:07:54;;;;;;;;;;;;;;;;;;;;;
2023/02/26 01:11:14;;;;;;;9.23;2.70;;;3.10;99.90;;;;;;4952366;29;20051;-92
2023/02/26 01:13:46;;;;;;;6.05;2.05;;;3.80;99.90;;;;;;4937576;29;20483;-92
2023/02/26 01:16:45;;;;;;;7.97;2.28;;;3.50;99.90;;;;;;4957134;29;20082;-92
2023/02/26 01:23:30;;;;;;;;;;;;;;;;;;;;;
2023/02/26 01:26:58;;;;;;;;;;;;;;;;;;;;;
2023/02/26 01:33:26;;;;;;;6.50;1.40;;;3.40;99.90;;;;;;4951690;23;20054;-92
2023/02/26 01:36:26;;;;;;;7.03;1.33;;;3.50;99.90;;;;;;4935890;29;20032;-91
2023/02/26 01:46:28;;;;;;;6.70;0.95;;;3.90;99.90;;;;;;4935321;29;20050;-91
2023/02/26 02:18:10;;;;;;;9.52;1.70;;;3.60;99.90;;;;;;4917009;29;20475;-91
2023/02/26 02:21:13;;;;;;;7.43;1.25;;;3.60;99.90;;;;;;4916588;29;20024;-91
2023/02/26 02:24:12;;;;;;;7.72;1.15;;;3.50;99.90;;;;;;4915469;29;20039;-91
2023/02/26 02:44:52;;;;;;;;;;;;;;;;;;;;;
2023/02/26 03:31:15;;;;;;;6.10;1.25;;;3.30;99.90;;;;;;4940097;23;20069;-93
2023/02/26 03:34:11;;;;;;;2.60;1.00;;;3.30;99.90;;;;;;4935218;29;20024;-91
2023/02/26 03:43:17;;;;;;;3.00;1.05;;;3.30;99.90;;;;;;4935856;29;20058;-90
2023/02/26 03:45:45;;;;;;;7.22;1.05;;;3.20;99.90;;;;;;4914529;29;20517;-91
2023/02/26 03:51:17;;;;;;;3.78;1.00;;;4.00;99.90;;;;;;4913392;29;20067;-91
2023/02/26 04:00:27;;;;;;;5.90;1.00;;;3.60;99.90;;;;;;4916885;29;20039;-91
2023/02/26 04:03:25;;;;;;;9.18;1.25;;;3.10;99.90;;;;;;4938276;29;20075;-90
2023/02/26 04:05:53;;;;;;;3.25;0.88;;;3.10;99.90;;;;;;4937725;29;20122;-91
2023/02/26 04:08:23;;;;;;;2.42;0.90;;;3.00;99.90;;;;;;4936722;29;20375;-92
2023/02/26 04:13:51;;;;;;;7.38;1.10;;;3.00;99.90;;;;;;4938682;29;20043;-91
2023/02/26 04:16:22;;;;;;;2.33;0.60;;;3.50;99.90;;;;;;4936697;29;20051;-91
2023/02/26 04:18:50;;;;;;;6.20;0.85;;;3.50;99.90;;;;;;4958451;23;20051;-91
2023/02/26 04:26:20;;;;;;;5.05;0.95;;;2.90;99.90;;;;;;4956384;23;20138;-91
2023/02/26 04:29:14;;;;;;;10.27;1.05;;;3.60;99.90;;;;;;5103994;23;20116;-91
2023/02/26 04:31:43;;;;;;;7.53;1.42;;;3.70;99.90;;;;;;4944633;23;20142;-91
2023/02/26 04:34:08;;;;;;;3.35;0.85;;;3.50;99.90;;;;;;4938079;29;20032;-91
2023/02/26 04:36:37;;;;;;;6.22;1.00;;;3.40;99.90;;;;;;4937264;29;20026;-91
2023/02/26 04:39:09;;;;;;;4.10;0.68;;;3.80;99.90;;;;;;4936757;29;20027;-91
2023/02/26 04:41:37;;;;;;;3.97;0.95;;;3.40;99.90;;;;;;4936618;29;20084;-90
2023/02/26 04:44:03;;;;;;;3.78;0.60;;;3.50;99.90;;;;;;4936088;29;20391;-90
2023/02/26 04:46:32;;;;;;;3.92;0.95;;;3.50;99.90;;;;;;4936790;29;20399;-91
2023/02/26 04:48:58;;;;;;;3.63;0.70;;;3.80;99.90;;;;;;4936354;29;20031;-90
2023/02/26 04:56:32;;;;;;;4.53;0.85;;;3.00;99.90;;;;;;4956639;23;20515;-91
2023/02/26 04:59:08;;;;;;;;;;;;;;;;;;;;;
2023/02/26 05:01:58;;;;;;;10.80;1.45;;;3.40;99.90;;;;;;4935207;23;20048;-91
2023/02/26 05:04:26;;;;;;;7.97;1.10;;;3.30;99.90;;;;;;4935835;29;20067;-91
2023/02/26 05:06:52;;;;;;;2.33;0.80;;;3.50;99.90;;;;;;4942328;23;20052;-92
2023/02/26 05:09:20;;;;;;;1.90;0.73;;;3.30;99.90;;;;;;4936681;29;20042;-90
2023/02/26 05:15:41;;;;;;;4.53;0.88;;;2.80;99.90;;;;;;4935840;29;20055;-91
2023/02/26 05:18:35;;;;;;;3.35;0.88;;;3.20;99.90;;;;;;4906261;29;20036;-91
2023/02/26 05:23:35;;;;;;;4.53;0.73;;;2.60;99.90;;;;;;4948447;23;21209;-91
2023/02/26 05:28:45;;;;;;;;;;;;;;;;;;;;;
2023/02/26 05:57:28;;;;;;;3.53;1.10;;;2.30;99.90;;;;;;5879312;23;20123;-91
2023/02/26 07:43:22;;;;;;;9.52;0.90;;;2.40;99.90;;;;;;4936361;29;20559;-90
2023/02/26 07:45:52;;;;;;;4.97;1.10;;;2.40;99.90;;;;;;4938989;29;20111;-91
2023/02/26 07:48:23;;;;;;;1.67;0.60;;;3.30;99.90;;;;;;4939047;29;20051;-90
2023/02/26 07:50:52;;;;;;;7.72;0.93;;;2.70;99.90;;;;;;4939396;29;20038;-89
2023/02/26 07:53:22;;;;;;;2.97;0.75;;;3.00;99.90;;;;;;4937932;29;20027;-88
2023/02/26 07:55:50;;;;;;;6.90;1.05;;;2.00;99.90;;;;;;4938142;29;20034;-89
2023/02/26 07:58:19;;;;;;;6.10;0.80;;;3.30;99.90;;;;;;4936873;29;20491;-89
2023/02/26 08:00:57;;;;;;;4.53;0.90;;;2.50;99.90;;;;;;4936431;29;20059;-89
2023/02/26 08:03:26;;;;;;;13.27;2.80;;;3.20;99.90;;;;;;4937257;29;20075;-91
2023/02/26 08:13:00;;;;;;;3.97;0.88;;;2.70;99.90;;;;;;4942859;23;20071;-92
2023/02/26 08:15:32;;;;;;;5.53;0.80;;;2.70;99.90;;;;;;4943596;29;20147;-89
2023/02/26 08:18:29;;;;;;;4.40;1.10;;;3.20;99.90;;;;;;4952429;29;20027;-91
2023/02/26 08:24:05;;;;;;;6.25;0.70;;;3.00;99.90;;;;;;4936970;29;20083;-91
2023/02/26 08:26:39;;;;;;;6.82;1.25;;;3.40;99.90;;;;;;4934706;29;20545;-89
2023/02/26 08:29:40;;;;;;;5.45;0.95;;;3.60;99.90;;;;;;4944818;29;20035;-89
2023/02/26 08:32:25;;;;;;;;;;;;;;;;;;;;;
2023/02/26 08:34:51;;;;;;;9.20;1.17;;;3.50;99.90;;;;;;5195308;23;20063;-88
2023/02/26 08:37:20;;;;;;;1.73;0.70;;;3.60;99.90;;;;;;4954674;23;20138;-91
2023/02/26 08:42:20;;;;;;;3.13;1.20;;;3.10;99.90;;;;;;4972647;23;20036;-90
2023/02/26 08:44:56;;;;;;;8.90;1.00;;;3.80;99.90;;;;;;4951278;23;20071;-90
2023/02/26 08:47:28;;;;;;;3.60;0.90;;;3.60;99.90;;;;;;4938023;29;20035;-91
2023/02/26 08:50:04;;;;;;;2.28;0.88;;;3.80;99.90;;;;;;4937773;29;20020;-89
2023/02/26 08:52:38;;;;;;;3.63;0.90;;;3.30;99.90;;;;;;4938419;29;20044;-90
2023/02/26 08:55:10;;;;;;;6.22;1.00;;;3.10;99.90;;;;;;4938220;29;20037;-90
2023/02/26 08:57:38;;;;;;;1.95;1.00;;;3.30;99.90;;;;;;4938114;29;20024;-90
2023/02/26 09:00:10;;;;;;;9.20;0.80;;;3.90;99.90;;;;;;4937763;29;20027;-89
2023/02/26 09:02:39;;;;;;;3.83;0.90;;;2.80;99.90;;;;;;4937663;29;20027;-91
2023/02/26 09:05:08;;;;;;;2.92;1.20;;;4.00;99.90;;;;;;4938030;29;20042;-89
2023/02/26 09:07:34;;;;;;;4.43;0.77;;;3.50;99.90;;;;;;4938292;29;20123;-90
2023/02/26 09:10:02;;;;;;;1.83;0.70;;;3.60;99.90;;;;;;4937186;29;20059;-91
2023/02/26 09:12:32;;;;;;;1.98;1.13;;;4.00;99.90;;;;;;4938144;29;20028;-90
2023/02/26 09:15:02;;;;;;;2.97;0.95;;;4.40;99.90;;;;;;4937685;29;20038;-91
2023/02/26 09:17:30;;;;;;;6.72;1.10;;;4.10;99.90;;;;;;4950939;23;20130;-91
2023/02/26 09:22:33;;;;;;;5.32;0.60;;;3.70;99.90;;;;;;4949395;23;20139;-90
2023/02/26 09:27:30;;;;;;;7.07;0.80;;;3.80;99.90;;;;;;4957225;23;20131;-90
2023/02/26 09:32:27;;;;;;;3.97;0.82;;;3.80;99.90;;;;;;4949225;23;20106;-91
2023/02/26 09:37:24;;;;;;;3.60;0.77;;;3.80;99.90;;;;;;4942084;23;20059;-91
2023/02/26 09:39:53;;;;;;;3.22;0.88;;;3.90;99.90;;;;;;4936922;29;20479;-91
2023/02/26 09:45:52;;;;;;;2.75;0.60;;;3.90;99.90;;;;;;4936187;29;20043;-89
2023/02/26 09:48:20;;;;;;;6.53;1.05;;;4.00;99.90;;;;;;4937244;29;20034;-90
2023/02/26 09:50:51;;;;;;;1.52;0.40;;;4.40;99.90;;;;;;4937507;29;20031;-91
2023/02/26 09:53:22;;;;;;;2.60;0.45;;;4.70;99.90;;;;;;4936618;29;20572;-91
2023/02/26 09:55:49;;;;;;;2.95;0.90;;;4.00;99.90;;;;;;4935907;29;20035;-90
2023/02/26 09:58:43;;;;;;;1.88;0.82;;;4.60;99.90;;;;;;4936861;29;20443;-91
2023/02/26 10:01:46;;;;;;;5.25;0.60;;;4.00;99.90;;;;;;4936534;29;20115;-90
2023/02/26 10:04:50;;;;;;;5.20;0.70;;;4.10;99.90;;;;;;4936823;29;20038;-91
2023/02/26 10:07:48;;;;;;;2.45;0.60;;;4.20;99.90;;;;;;4935741;29;20042;-90
2023/02/26 10:10:22;;;;;;;2.65;0.70;;;4.20;99.90;;;;;;4936804;29;20044;-90
2023/02/26 10:12:50;;;;;;;6.82;2.35;;;4.30;99.90;;;;;;4937105;29;20032;-91
2023/02/26 10:15:19;;;;;;;3.08;1.27;;;4.30;99.90;;;;;;4936749;29;20059;-90
2023/02/26 10:18:19;;;;;;;2.40;0.65;;;4.70;99.90;;;;;;4937075;29;20031;-91
2023/02/26 10:21:17;;;;;;;2.47;0.70;;;4.40;99.90;;;;;;4936457;29;20035;-90
2023/02/26 10:24:17;;;;;;;5.57;0.75;;;3.90;99.90;;;;;;4942300;29;20044;-92
2023/02/26 10:27:16;;;;;;;2.92;0.57;;;4.40;99.90;;;;;;4935902;29;20051;-90
2023/02/26 10:29:54;;;;;;;2.60;1.20;;;4.50;99.90;;;;;;4936268;29;20082;-90
2023/02/26 10:32:52;;;;;;;5.22;1.20;;;4.50;99.90;;;;;;4936208;29;20479;-90
2023/02/26 10:35:20;;;;;;;6.03;0.63;;;4.50;99.90;;;;;;4934689;29;21410;-89
2023/02/26 10:37:59;;;;;;;3.42;0.57;;;5.10;99.90;;;;;;4935911;29;20027;-90
2023/02/26 10:40:53;;;;;;;1.65;0.70;;;4.70;99.90;;;;;;4936234;29;20455;-90
2023/02/26 10:43:21;;;;;;;1.98;1.00;;;4.70;99.90;;;;;;4935253;29;20028;-91
2023/02/26 10:46:18;;;;;;;3.00;0.55;;;5.00;99.90;;;;;;4936054;29;20040;-89
2023/02/26 10:58:10;;;;;;;4.05;0.70;;;5.00;99.90;;;;;;4959609;23;20055;-88
2023/02/26 11:00:36;;;;;;;3.78;0.55;;;5.60;99.90;;;;;;4951928;29;20038;-89
2023/02/26 11:05:56;;;;;;;3.53;0.68;;;5.70;99.90;;;;;;4935909;29;20054;-89
2023/02/26 11:08:26;;;;;;;1.85;0.63;;;5.10;99.90;;;;;;4935481;29;20035;-89
2023/02/26 11:11:03;;;;;;;1.63;0.50;;;5.40;99.90;;;;;;4934800;29;20030;-89
2023/02/26 11:13:32;;;;;;;3.22;0.40;;;5.00;99.90;;;;;;4935495;29;20299;-87
2023/02/26 11:16:03;;;;;;;6.03;0.85;;;4.90;99.90;;;;;;4935555;29;20024;-88
2023/02/26 11:19:04;;;;;;;2.92;0.60;;;5.90;99.90;;;;;;4935349;29;20465;-88
2023/02/26 11:21:39;;;;;;;2.03;0.63;;;5.60;99.90;;;;;;4933530;29;20039;-87
2023/02/26 11:24:10;;;;;;;1.23;0.50;;;5.50;99.90;;;;;;4932999;29;20036;-89
2023/02/26 11:26:38;;;;;;;9.48;0.70;;;5.00;99.90;;;;;;4935052;29;20042;-88
2023/02/26 11:29:05;;;;;;;10.15;1.42;;;5.40;99.90;;;;;;4935237;29;20051;-90
2023/02/26 11:31:31;;;;;;;1.50;0.50;;;5.80;99.90;;;;;;4934641;29;20087;-89
2023/02/26 11:34:07;;;;;;;2.95;0.70;;;5.70;99.90;;;;;;4935124;29;20040;-90
2023/02/26 11:36:36;;;;;;;2.67;0.60;;;5.50;99.90;;;;;;4935842;29;20024;-90
2023/02/26 11:39:15;;;;;;;4.88;0.60;;;6.10;99.90;;;;;;4934841;29;20486;-90
2023/02/26 11:41:43;;;;;;;3.35;0.60;;;5.80;99.90;;;;;;4935175;29;20431;-89
2023/02/26 11:44:24;;;;;;;;;;;;;;;;;;;;;
2023/02/26 11:46:55;;;;;;;3.20;0.50;;;6.40;99.90;;;;;;4922657;29;20391;-91
2023/02/26 11:49:27;;;;;;;4.05;0.70;;;6.00;99.90;;;;;;4937540;29;20024;-88
2023/02/26 11:52:17;;;;;;;4.00;0.68;;;5.70;99.90;;;;;;4934360;29;20079;-89
2023/02/26 11:55:20;;;;;;;1.80;0.57;;;6.00;99.90;;;;;;4953611;29;20439;-90
2023/02/26 11:57:53;;;;;;;0.85;0.50;;;5.50;99.90;;;;;;4953176;28;20054;-89
2023/02/26 12:00:51;;;;;;;1.10;0.50;;;6.20;99.90;;;;;;4953285;29;20038;-89
2023/02/26 12:03:30;;;;;;;1.05;0.57;;;5.40;99.90;;;;;;4953812;29;20023;-90
2023/02/26 12:05:57;;;;;;;2.90;0.70;;;6.30;99.90;;;;;;4953667;29;20046;-89
2023/02/26 12:08:29;;;;;;;3.55;0.70;;;5.90;99.90;;;;;;4945581;29;20054;-89
2023/02/26 12:11:25;;;;;;;4.38;0.50;;;5.80;99.90;;;;;;4944377;29;20035;-89
2023/02/26 12:14:19;;;;;;;2.15;0.77;;;5.80;99.90;;;;;;4941074;29;20032;-89
2023/02/26 12:19:53;;;;;;;2.28;0.45;;;6.00;99.90;;;;;;4975163;23;20550;-90
2023/02/26 12:22:53;;;;;;;2.42;0.70;;;6.00;99.90;;;;;;4939651;29;20468;-90
2023/02/26 12:25:59;;;;;;;1.25;0.50;;;6.00;99.90;;;;;;4938584;29;20032;-94
2023/02/26 12:42:33;;;;;;;2.10;0.60;;;5.80;99.90;;;;;;4937761;29;20038;-87
2023/02/26 12:45:35;;;;;;;1.45;0.40;;;6.10;99.90;;;;;;4937755;29;20040;-87
2023/02/26 12:48:09;;;;;;;1.73;0.60;;;6.20;99.90;;;;;;4936927;29;20031;-87
2023/02/26 12:54:41;;;;;;;1.65;0.60;;;6.20;99.90;;;;;;4937972;29;20034;-87
2023/02/26 12:57:35;;;;;;;1.83;0.50;;;6.20;99.90;;;;;;4897321;29;20033;-87
2023/02/26 13:01:10;;;;;;;1.83;0.60;;;6.30;99.80;;;;;;4897084;29;20032;-88
2023/02/26 13:06:47;;;;;;;2.38;0.82;;;6.40;99.90;;;;;;4950981;23;20099;-87
2023/02/26 13:09:50;;;;;;;2.10;0.65;;;6.40;99.90;;;;;;4936138;29;20036;-86
2023/02/26 13:12:49;;;;;;;2.20;0.60;;;6.50;99.90;;;;;;4936904;29;20031;-87
2023/02/26 13:15:26;;;;;;;1.55;0.50;;;6.30;99.90;;;;;;4936960;29;20082;-87
2023/02/26 13:18:23;;;;;;;1.67;0.70;;;6.60;99.90;;;;;;4936042;29;20020;-86
2023/02/26 13:21:01;;;;;;;2.20;0.50;;;6.60;99.90;;;;;;4999012;23;20075;-86
2023/02/26 13:23:58;;;;;;;1.90;0.47;;;7.00;99.80;;;;;;4969341;23;20062;-86
2023/02/26 13:26:41;;;;;;;4.40;0.60;;;6.50;99.90;;;;;;4950423;23;20090;-88
2023/02/26 13:32:28;;;;;;;2.17;0.73;;;7.40;99.80;;;;;;4935789;29;20125;-87
2023/02/26 13:34:59;;;;;;;3.22;0.60;;;6.90;99.90;;;;;;4941190;23;20055;-88
2023/02/26 13:37:36;;;;;;;3.70;0.70;;;6.80;99.90;;;;;;5064220;23;20052;-87
2023/02/26 13:40:35;;;;;;;2.95;0.70;;;6.70;99.90;;;;;;4941557;23;20055;-87
2023/02/26 13:46:07;;;;;;;2.67;0.55;;;6.80;99.60;;;;;;4954536;23;20063;-86
2023/02/26 13:49:10;;;;;;;3.97;0.50;;;6.80;99.90;;;;;;4950119;23;20071;-88
2023/02/26 13:51:41;;;;;;;2.97;0.73;;;6.50;99.70;;;;;;4935860;29;20547;-87
2023/02/26 13:54:10;;;;;;;;;;;7.40;99.90;;;;;;4937044;29;20036;-88
2023/02/26 13:57:13;;;;;;;1.30;0.60;;;7.20;99.90;;;;;;4936529;29;19907;-87
2023/02/26 14:00:16;;;;;;;1.85;0.70;;;7.10;99.60;;;;;;4935643;29;20036;-87
2023/02/26 14:03:11;;;;;;;2.28;0.63;;;7.10;99.60;;;;;;4936309;29;20031;-86
2023/02/26 14:05:45;;;;;;;1.67;0.40;;;7.10;98.70;;;;;;4935715;29;20050;-86
2023/02/26 14:08:49;;;;;;;2.00;1.15;;;7.10;98.80;;;;;;4935867;29;20479;-87
2023/02/26 14:12:08;;;;;;;4.65;0.70;;;7.20;99.20;;;;;;4935701;29;20472;-88
2023/02/26 14:15:12;;;;;;;4.03;0.82;;;7.00;99.30;;;;;;4948925;23;20055;-87
2023/02/26 14:18:41;;;;;;;3.67;1.45;;;7.30;99.00;;;;;;4932397;23;20087;-86
2023/02/26 14:21:48;;;;;;;3.60;0.80;;;7.70;99.90;;;;;;5033708;23;20054;-88
2023/02/26 14:24:44;;;;;;;1.58;0.77;;;7.40;99.90;;;;;;4941896;29;20138;-86
2023/02/26 14:27:19;;;;;;;0.93;0.60;;;7.40;99.50;;;;;;4954192;29;20026;-87
2023/02/26 14:36:51;;;;;;;0.85;0.47;;;8.30;99.80;;;;;;4954759;29;20439;-87
2023/02/26 14:39:52;;;;;;;2.80;0.80;;;7.70;98.70;;;;;;4954215;29;20038;-87
2023/02/26 14:42:55;;;;;;;3.95;0.43;;;8.10;99.20;;;;;;4934224;28;20042;-87
2023/02/26 14:45:30;;;;;;;1.27;0.60;;;7.70;98.90;;;;;;4954338;29;20046;-86
2023/02/26 14:47:59;;;;;;;1.48;0.57;;;7.80;99.90;;;;;;4953926;29;20043;-87
2023/02/26 14:51:02;;;;;;;0.55;0.50;;;8.40;99.90;;;;;;4954816;29;20629;-86
2023/02/26 14:54:04;;;;;;;1.17;0.60;;;7.90;98.60;;;;;;4954781;29;20038;-87
2023/02/26 15:03:27;;;;;;;2.85;0.65;;;7.90;99.90;;;;;;5042168;23;20130;-88
2023/02/26 15:09:27;;;;;;;2.17;0.60;;;8.10;99.90;;;;;;4935355;29;20108;-91
2023/02/26 15:12:33;;;;;;;2.70;0.88;;;7.70;99.90;;;;;;4935364;29;20054;-88
2023/02/26 15:15:41;;;;;;;4.57;0.75;;;7.30;99.90;;;;;;4935114;29;20035;-88
2023/02/26 15:18:37;;;;;;;9.43;0.68;;;7.60;99.90;;;;;;4935405;29;20031;-88
2023/02/26 15:21:39;;;;;;;1.48;0.40;;;7.60;99.90;;;;;;4935489;29;20099;-89
2023/02/26 15:24:13;;;;;;;3.38;1.00;;;7.70;99.80;;;;;;4934985;29;20024;-88
2023/02/26 15:26:48;;;;;;;1.52;0.45;;;8.20;99.90;;;;;;4935519;29;20079;-90
2023/02/26 15:32:33;;;;;;;1.40;0.57;;;7.70;99.90;;;;;;5146918;23;20142;-89
2023/02/26 15:35:36;;;;;;;0.93;0.55;;;7.70;99.90;;;;;;4935432;29;20090;-89
2023/02/26 15:38:05;;;;;;;3.22;0.50;;;7.70;99.90;;;;;;4934841;29;20492;-90
2023/02/26 15:40:53;;;;;;;3.10;0.82;;;7.90;99.90;;;;;;4935590;29;20028;-89
2023/02/26 15:43:26;;;;;;;4.32;0.85;;;8.70;99.90;;;;;;4934693;29;20032;-90
2023/02/26 15:45:58;;;;;;;5.07;1.02;;;8.20;99.90;;;;;;4941655;23;20033;-91
2023/02/26 15:51:10;;;;;;;1.30;0.90;;;7.60;99.90;;;;;;4956032;23;20074;-89
2023/02/26 15:53:48;;;;;;;4.60;0.70;;;8.90;99.90;;;;;;4937337;29;20041;-88
2023/02/26 15:56:29;;;;;;;1.73;0.80;;;8.00;99.90;;;;;;4938706;29;20055;-89
2023/02/26 16:07:15;;;;;;;1.45;0.50;;;7.60;99.90;;;;;;4970731;23;19926;-90
2023/02/26 16:10:42;;;;;;;3.97;0.70;;;7.50;99.90;;;;;;4940016;29;20123;-92
2023/02/26 17:11:02;;;;;;;2.97;1.17;;;6.10;99.90;;;;;;4938350;29;20082;-87
2023/02/26 17:17:35;;;;;;;2.38;0.77;;;6.40;99.90;;;;;;4934542;29;20138;-91
2023/02/26 17:20:04;;;;;;;8.68;1.17;;;6.30;99.90;;;;;;4935642;29;20051;-89
2023/02/26 17:22:32;;;;;;;2.55;0.80;;;6.20;99.90;;;;;;4937461;29;20066;-90
2023/02/26 17:24:58;;;;;;;6.15;0.68;;;6.90;99.90;;;;;;4937474;29;20043;-89
2023/02/26 17:30:31;;;;;;;5.55;1.13;;;6.20;99.90;;;;;;4952177;23;20519;-90
2023/02/26 17:35:28;;;;;;;5.97;1.00;;;6.00;99.90;;;;;;4942176;23;20135;-90
2023/02/26 17:38:23;;;;;;;12.38;3.42;;;6.40;99.90;;;;;;4941814;23;20471;-91
2023/02/26 17:40:57;;;;;;;3.70;0.75;;;5.40;99.90;;;;;;4936990;29;20091;-91
2023/02/26 17:47:57;;;;;;;4.13;0.82;;;5.80;99.90;;;;;;4990045;23;20111;-87
2023/02/26 18:20:05;;;;;;;7.38;1.23;;;5.30;99.90;;;;;;4955896;23;20059;-90
2023/02/26 18:30:26;;;;;;;5.60;1.23;;;5.20;99.90;;;;;;4865141;29;20058;-90
2023/02/26 19:09:42;;;;;;;2.55;1.38;;;4.80;99.90;;;;;;5011882;23;20056;-89
2023/02/26 19:12:23;;;;;;;;;;;;;;;;;;;;;
2023/02/26 19:15:37;;;;;;;4.30;1.48;;;5.20;99.90;;;;;;4868737;29;19973;-91
2023/02/26 19:18:05;;;;;;;7.45;1.67;;;4.70;99.90;;;;;;4832444;29;20041;-90
2023/02/26 19:20:31;;;;;;;4.70;1.80;;;4.80;99.90;;;;;;4833870;29;20053;-88
2023/02/26 19:22:56;;;;;;;7.85;2.35;;;5.50;99.90;;;;;;4856406;29;20150;-89
2023/02/26 19:25:32;;;;;;;5.45;1.60;;;5.10;99.90;;;;;;4845297;29;20474;-89
2023/02/26 19:28:14;;;;;;;;;;;;;;;;;;;;;
2023/02/26 19:31:16;;;;;;;;;;;;;;;;;;;;;
2023/02/26 20:47:39;;;;;;;;;;;;;;;;;;;;;
2023/02/26 20:50:24;;;;;;;4.47;1.65;;;4.50;99.90;;;;;;6155687;22;20079;-88
2023/02/26 20:53:06;;;;;;;4.90;1.75;;;4.80;99.90;;;;;;6284149;22;20435;-88
2023/02/26 20:55:35;;;;;;;4.32;1.77;;;5.00;99.90;;;;;;6285736;22;20073;-87
2023/02/26 20:58:02;;;;;;;7.65;1.95;;;5.00;99.90;;;;;;6284704;22;20022;-87
2023/02/26 21:00:37;;;;;;;4.43;1.77;;;5.00;99.90;;;;;;6284277;22;20362;-88
2023/02/26 21:03:02;;;;;;;5.80;2.10;;;5.10;99.90;;;;;;6284590;22;20061;-85
2023/02/26 21:05:31;;;;;;;7.82;2.53;;;4.40;99.90;;;;;;6285059;22;20007;-88
2023/02/26 21:08:03;;;;;;;5.13;2.38;;;4.40;99.90;;;;;;6282848;22;20011;-88
2023/02/26 21:10:58;;;;;;;7.25;2.53;;;4.80;99.90;;;;;;6283632;22;20003;-89
2023/02/26 21:22:23;;;;;;;6.60;2.65;;;4.30;99.90;;;;;;6313068;22;20010;-87
2023/02/26 21:24:53;;;;;;;10.70;1.80;;;4.20;99.90;;;;;;6297366;22;20019;-88
2023/02/26 21:27:19;;;;;;;6.28;1.80;;;4.70;99.90;;;;;;6245825;22;20031;-87
2023/02/26 21:30:29;;;;;;;;;;;;;;;;;;;;;
2023/02/26 21:33:18;;;;;;;10.55;1.75;;;4.20;99.90;;;;;;6243054;22;20110;-87
2023/02/26 21:35:51;;;;;;;6.10;1.63;;;4.30;99.90;;;;;;6288413;22;20023;-89
2023/02/26 21:38:21;;;;;;;11.52;2.10;;;4.80;99.90;;;;;;6307587;22;20027;-89
2023/02/26 21:40:52;;;;;;;4.25;1.50;;;4.80;99.90;;;;;;6306532;22;20015;-89
2023/02/26 21:43:17;;;;;;;5.47;2.00;;;4.80;99.90;;;;;;6306838;22;20011;-89
2023/02/26 21:48:45;;;;;;;11.23;1.88;;;4.20;99.90;;;;;;6307889;22;20026;-87
2023/02/26 21:51:10;;;;;;;7.60;2.20;;;4.70;99.90;;;;;;6307015;22;20311;-88
2023/02/26 22:13:03;;;;;;;5.55;2.03;;;4.20;99.90;;;;;;6253502;22;20391;-89
2023/02/26 22:21:28;;;;;;;6.60;1.95;;;4.30;99.90;;;;;;6307030;22;20127;-87
2023/02/26 22:23:56;;;;;;;5.50;1.20;;;4.30;99.90;;;;;;6307551;22;20041;-86
2023/02/26 22:26:21;;;;;;;5.70;1.55;;;4.00;99.90;;;;;;6306408;22;20029;-87
2023/02/26 22:28:56;;;;;;;7.30;1.48;;;5.10;99.90;;;;;;6307583;22;20473;-87
2023/02/26 22:31:24;;;;;;;4.80;1.60;;;4.00;99.90;;;;;;6306715;22;20007;-87
2023/02/26 22:33:50;;;;;;;4.80;1.23;;;4.00;99.90;;;;;;6307445;22;20007;-87
2023/02/26 22:36:15;;;;;;;2.72;1.40;;;4.50;99.90;;;;;;6305695;22;19999;-87
2023/02/26 22:38:41;;;;;;;5.07;1.17;;;3.40;99.90;;;;;;6307420;22;20303;-88
2023/02/26 22:48:41;;;;;;;4.55;1.50;;;3.90;99.90;;;;;;6275603;22;20016;-90
2023/02/26 22:51:09;;;;;;;9.82;2.53;;;4.30;99.90;;;;;;6274898;22;20447;-90
2023/02/26 22:53:40;;;;;;;10.60;1.77;;;3.70;99.90;;;;;;6257583;22;20040;-89
2023/02/26 22:56:06;;;;;;;9.10;1.88;;;4.70;99.90;;;;;;6246019;22;20004;-90
2023/02/26 22:58:31;;;;;;;2.70;1.33;;;3.70;99.90;;;;;;6246325;22;20416;-89
2023/02/26 23:01:05;;;;;;;5.63;1.63;;;4.10;99.90;;;;;;6243668;23;19996;-91
2023/02/26 23:03:33;;;;;;;8.38;1.95;;;4.30;99.90;;;;;;6244069;22;20428;-90
2023/02/26 23:05:59;;;;;;;5.38;1.40;;;3.70;99.90;;;;;;6244120;23;20302;-90
2023/02/26 23:08:28;;;;;;;4.78;1.20;;;3.80;99.90;;;;;;6243313;22;20075;-90
2023/02/26 23:10:58;;;;;;;5.63;1.60;;;4.50;99.90;;;;;;6243951;23;20054;-91
2023/02/26 23:13:26;;;;;;;5.85;1.63;;;5.10;99.90;;;;;;6243415;22;20019;-91
2023/02/26 23:16:00;;;;;;;5.70;1.70;;;4.00;99.90;;;;;;6245042;22;20008;-90
2023/02/26 23:18:30;;;;;;;5.65;1.85;;;4.60;99.90;;;;;;6246547;22;20004;-90
2023/02/26 23:21:01;;;;;;;7.15;1.83;;;4.30;99.90;;;;;;6245530;22;20004;-90
2023/02/26 23:23:27;;;;;;;5.47;1.77;;;4.70;99.90;;;;;;6246222;22;20001;-90
2023/02/26 23:25:53;;;;;;;8.25;1.75;;;4.90;99.90;;;;;;6246304;22;20328;-91
2023/02/26 23:30:50;;;;;;;9.20;2.53;;;4.10;99.90;;;;;;6337917;22;20045;-90
2023/02/26 23:35:50;;;;;;;6.40;1.77;;;4.00;99.90;;;;;;6274547;22;20819;-88
2023/02/26 23:40:50;;;;;;;5.55;1.45;;;4.00;99.90;;;;;;6276362;22;20089;-89
2023/02/26 23:45:56;;;;;;;3.92;1.48;;;4.10;99.90;;;;;;6276063;22;20030;-90
2023/02/26 23:50:53;;;;;;;9.00;1.50;;;4.10;99.90;;;;;;6306168;22;20019;-89
2023/02/26 23:53:21;;;;;;;7.95;1.98;;;4.40;99.90;;;;;;6281461;22;20364;-89
2023/02/26 23:55:57;;;;;;;4.97;1.45;;;5.30;99.90;;;;;;6275531;22;19996;-89
2023/02/26 23:58:25;;;;;;;5.45;1.60;;;4.60;99.90;;;;;;6300217;22;20047;-90
